Modesto, California
Current Conditions -  °F | °C
As of 6:53 PM on Tuesday 25 Nov 2014 (Local Time) from KMOD Reporting Station
Clear Clear  
Wind Chill: 52°   Ceiling: Unl
Heat Index: 52°   Visibility: 7mi
Dew Point: 46°   Wind: 0mph
Humidity: 80%   Direction: NA
Pressure: 30.37"   Gusts: NA
Location:  37.64°N, 120.99°W
Report Text: KMOD 260253Z 00000KT 7SM CLR 11/08 A3037 RMK AO2 SLP286 T01110078 55001
Loading
Personal Weather Stations






























Interactive Weather Map New forecast layout! Learn more

10-Day Weather Forecast

Advertisements
Track Severe Weather on mobile